Tunis, Tunisia
Current Conditions -  °F | °C
As of 10:00 PM on Tuesday 27 Jan 2015 (Local Time) from DTTA Reporting Station
Scattered Clouds Scattered Clouds  
Wind Chill: 52°   Ceiling: Unl
Heat Index: 52°   Visibility: 6mi
Dew Point: 45°   Wind: 14mph
Humidity: 76%   Direction: 260°W
Pressure: 30"   Gusts: NA
Location:  36.84°N, 10.22°E
Report Text: DTTA 272100Z 26012KT 9999 SCT023TCU 11/07 Q1016 NOSIG
Loading
Personal Weather Stations






























Interactive Weather Map New forecast layout! Learn more

10-Day Weather Forecast

Advertisements
Track Severe Weather on mobile